Harrold, TX (76364)

4:31 PM CDT on May 05, 2015 (GMT -0500)
Electra | | Change Station
CLOSE
Current Station
Personal Weather Station
Location: Electra, TX
Elevation: 1227 ft
Nearby Weather Stations

Elev 1227 ft 34.03 °N, 98.91 °W | Updated 3 seconds ago

Rain
Rain
61.5 °F
Feels Like 61.5 °F
N
0.9
Wind Variable Wind from NE
Gusts 3.0 mph

Today
High -- | Low -- °F
--% Chance of Precip.
Yesterday
High -- | Low -- °F
Precip. -- in
6:43 AM 8:22 PM
Full, 97% visible
Pressure 29.88 in
Visibility 10.0 miles
Clouds Mostly Cloudy 3800 ft
Overcast 4400 ft
Dew Point 60 °F
Humidity 96%
Rainfall 1.27 in
Snow Depth Not available.
UV 2 out of 12
Pollen 7.20 out of 12
Air Quality Not available.
Flu Activity Sporadic
METAR KF05 052115Z AUTO 13008KT 10SM BKN038 OVC044 18/15 A2988 RMK AO1 LTG DSNT NE AND E T01790147

More Conditions Fewer Conditions

Pressure 29.88 in
Visibility 10.0 miles
Clouds Mostly Cloudy 3800 ft
Overcast 4400 ft
Dew Point 60 °F
Humidity 96%
Rainfall 1.27 in
Snow Depth Not available.
UV 2 out of 12
Pollen 7.20 out of 12
Air Quality Not available.
Flu Activity Sporadic
METAR KF05 052115Z AUTO 13008KT 10SM BKN038 OVC044 18/15 A2988 RMK AO1 LTG DSNT NE AND E T01790147

More Conditions Fewer Conditions

10-Day Weather Forecast

Almanac

Astronomy

May. 05, 2015 Rise Set
Actual Time
Civil Twilight
Nautical Twilight
Astronomical Twilight
Moon
Length of Visible Light
Length of Day
Tomorrow will be .
, % of the Moon is Illuminated

Today's Extremes

State Highs State Lows

Community

WunderPhotos

Upload Photos

1,818,982 photos uploaded!

WunderBlogs® & News

Nearby

Air Quality

  Air Quality AQ Index Pollutant
Not available.

Snow Depth

Station Depth Elevation

Earthquake Activity

City Distance Mag. Time & Date
Minimum magnitude displayed is 2.5.

Coastal Water Temperatures

Place Temperature

Stations

Nearby Weather Stations

Station Location Temp. Windchill Dew Point Humidity Wind Precip. Elev Updated Type